Time;durP1;ratioP1;P1;durP2;ratioP2;P2;SDS_P1;SDS_P2;PMS_P1;PMS_P2;Temp;Humidity;BMP_temperature;BMP_pressure;BME280_temperature;BME280_humidity;BME280_pressure;Samples;Min_cycle;Max_cycle;Signal;HPM_P1;HPM_P2
2022/01/06 00:01:03;;;;;;;35.97;4.47;;;2.00;99.90;;;;;;5094714;28;20537;-64
2022/01/06 00:03:31;;;;;;;31.63;4.97;;;2.00;99.90;;;;;;5095558;28;20047;-63
2022/01/06 00:05:57;;;;;;;27.63;5.25;;;2.00;99.90;;;;;;5102124;28;20198;-63
2022/01/06 00:08:23;;;;;;;21.33;3.88;;;2.00;99.90;;;;;;5094337;28;20043;-63
2022/01/06 00:10:49;;;;;;;29.20;5.93;;;2.00;99.90;;;;;;5086824;28;20040;-65
2022/01/06 00:13:21;;;;;;;37.45;4.70;;;1.90;99.90;;;;;;5085405;28;20044;-65
2022/01/06 00:23:42;;;;;;;26.98;5.30;;;2.00;99.90;;;;;;5083947;28;20043;-66
2022/01/06 00:26:08;;;;;;;31.23;3.47;;;2.00;99.90;;;;;;5089447;28;20040;-65
2022/01/06 00:28:35;;;;;;;22.30;3.60;;;2.00;99.90;;;;;;5084058;28;20119;-64
2022/01/06 00:31:01;;;;;;;18.20;2.97;;;2.00;99.90;;;;;;5086742;28;20036;-65
2022/01/06 00:33:30;;;;;;;27.33;4.32;;;2.00;99.90;;;;;;5083958;28;20044;-65
2022/01/06 00:35:56;;;;;;;35.92;5.70;;;2.00;99.90;;;;;;5079280;28;20035;-64
2022/01/06 00:38:24;;;;;;;23.83;3.53;;;2.00;99.90;;;;;;5083467;28;20511;-65
2022/01/06 00:40:50;;;;;;;21.42;3.97;;;2.00;99.90;;;;;;5078391;28;20043;-65
2022/01/06 00:43:16;;;;;;;30.25;4.15;;;2.00;99.90;;;;;;5081978;28;20028;-65
2022/01/06 00:45:41;;;;;;;30.75;4.13;;;2.00;99.90;;;;;;5087830;28;20453;-66
2022/01/06 00:48:10;;;;;;;23.77;4.07;;;2.00;99.90;;;;;;5078832;28;20454;-65
2022/01/06 00:50:39;;;;;;;22.40;3.50;;;2.00;99.90;;;;;;5087063;28;20506;-64
2022/01/06 00:53:05;;;;;;;31.08;5.32;;;2.00;99.90;;;;;;5085383;28;20115;-64
2022/01/06 00:55:32;;;;;;;21.45;3.70;;;2.00;99.90;;;;;;5088875;28;20123;-65
2022/01/06 00:57:58;;;;;;;27.33;3.78;;;2.00;99.90;;;;;;5083185;28;20039;-66
2022/01/06 01:00:27;;;;;;;28.17;5.78;;;2.00;99.90;;;;;;5084131;28;20574;-65
2022/01/06 01:02:53;;;;;;;27.10;4.93;;;2.00;99.90;;;;;;5079571;28;20036;-65
2022/01/06 01:05:18;;;;;;;19.73;3.63;;;2.00;99.90;;;;;;5073502;28;20101;-66
2022/01/06 01:07:44;;;;;;;28.83;4.10;;;2.00;99.90;;;;;;5078384;28;20114;-65
2022/01/06 01:10:10;;;;;;;23.85;4.63;;;1.90;99.90;;;;;;5079674;28;20062;-65
2022/01/06 01:12:35;;;;;;;19.25;3.75;;;1.90;99.90;;;;;;5075607;28;20032;-64
2022/01/06 01:15:08;;;;;;;34.53;3.90;;;2.00;99.90;;;;;;5073993;28;20039;-65
2022/01/06 01:17:34;;;;;;;23.80;3.83;;;2.00;99.90;;;;;;5083607;28;20054;-64
2022/01/06 01:20:02;;;;;;;21.38;3.63;;;2.00;99.90;;;;;;5086044;28;20118;-65
2022/01/06 01:22:28;;;;;;;23.60;4.22;;;2.00;99.90;;;;;;5081286;28;20459;-65
2022/01/06 01:24:53;;;;;;;19.58;3.53;;;2.00;99.90;;;;;;5080123;28;20036;-65
2022/01/06 01:27:22;;;;;;;25.35;4.78;;;2.00;99.90;;;;;;5081342;28;20489;-64
2022/01/06 01:30:02;;;;;;;28.95;3.80;;;2.00;99.90;;;;;;5078547;28;20119;-65
2022/01/06 01:32:34;;;;;;;35.08;4.93;;;2.00;99.90;;;;;;5080724;28;20078;-66
2022/01/06 01:35:02;;;;;;;24.77;3.90;;;2.00;99.90;;;;;;5086211;28;20122;-66
2022/01/06 01:37:31;;;;;;;30.23;4.97;;;1.90;99.90;;;;;;5083811;28;20040;-65
2022/01/06 01:39:58;;;;;;;18.95;3.60;;;2.00;99.90;;;;;;5082543;28;20135;-64
2022/01/06 01:42:25;;;;;;;30.58;4.35;;;2.00;99.90;;;;;;5081775;28;20090;-66
2022/01/06 01:44:52;;;;;;;21.52;4.07;;;2.00;99.90;;;;;;5087235;28;20480;-65
2022/01/06 01:47:44;;;;;;;18.13;3.65;;;1.90;99.90;;;;;;5081413;28;20040;-66
2022/01/06 01:50:15;;;;;;;25.75;4.25;;;1.90;99.90;;;;;;5084386;28;20036;-66
2022/01/06 01:52:44;;;;;;;19.42;4.22;;;2.00;99.90;;;;;;5079702;28;20035;-65
2022/01/06 01:55:10;;;;;;;32.50;5.90;;;2.00;99.90;;;;;;5076031;28;20032;-66
2022/01/06 01:57:36;;;;;;;20.58;3.63;;;1.90;99.90;;;;;;5083716;28;20499;-64
2022/01/06 02:00:05;;;;;;;25.27;4.45;;;1.90;99.90;;;;;;5079195;28;20036;-64
2022/01/06 02:02:31;;;;;;;21.52;3.75;;;1.90;99.90;;;;;;5078399;28;20041;-64
2022/01/06 02:04:57;;;;;;;24.75;4.97;;;1.90;99.90;;;;;;5068787;28;20938;-65
2022/01/06 02:07:22;;;;;;;26.52;4.80;;;1.90;99.90;;;;;;5070718;28;20043;-65
2022/01/06 02:09:48;;;;;;;25.50;5.55;;;1.90;99.90;;;;;;5072481;28;20039;-65
2022/01/06 02:12:23;;;;;;;27.83;5.45;;;1.90;99.90;;;;;;5082824;28;20044;-64
2022/01/06 02:14:48;;;;;;;29.17;5.03;;;1.90;99.90;;;;;;5081023;28;20040;-64
2022/01/06 02:17:14;;;;;;;19.88;4.65;;;1.90;99.90;;;;;;5080179;28;20055;-65
2022/01/06 02:19:39;;;;;;;29.50;5.65;;;1.90;99.90;;;;;;5078546;28;20058;-65
2022/01/06 02:22:05;;;;;;;17.80;4.32;;;2.00;99.90;;;;;;5072630;28;20136;-65
2022/01/06 02:24:31;;;;;;;17.92;4.78;;;1.90;99.90;;;;;;5070431;28;20048;-64
2022/01/06 02:26:56;;;;;;;22.63;5.20;;;1.90;99.90;;;;;;5081333;28;20038;-66
2022/01/06 02:29:22;;;;;;;25.42;4.72;;;2.00;99.90;;;;;;5071445;28;20036;-65
2022/01/06 02:31:47;;;;;;;27.52;5.57;;;2.00;99.90;;;;;;5082072;28;20032;-64
2022/01/06 02:34:13;;;;;;;28.42;4.28;;;1.90;99.90;;;;;;5068349;28;20152;-64
2022/01/06 02:36:39;;;;;;;21.13;5.25;;;1.90;99.90;;;;;;5084281;28;20090;-65
2022/01/06 02:39:04;;;;;;;22.70;5.55;;;1.90;99.90;;;;;;5082365;28;20051;-64
2022/01/06 02:41:30;;;;;;;30.15;4.90;;;1.90;99.90;;;;;;5085914;28;20032;-66
2022/01/06 02:43:56;;;;;;;31.25;6.50;;;1.90;99.90;;;;;;5075740;28;20472;-65
2022/01/06 02:46:22;;;;;;;28.80;6.13;;;1.80;99.90;;;;;;5092490;28;20043;-66
2022/01/06 02:48:47;;;;;;;29.25;5.72;;;1.80;99.90;;;;;;5090987;28;20122;-65
2022/01/06 02:51:13;;;;;;;25.88;5.97;;;1.90;99.90;;;;;;5078668;28;20040;-64
2022/01/06 02:53:39;;;;;;;22.60;5.82;;;1.90;99.90;;;;;;5070436;28;20039;-65
2022/01/06 02:56:04;;;;;;;28.85;6.45;;;1.80;99.90;;;;;;5075601;28;20116;-65
2022/01/06 02:58:30;;;;;;;20.50;5.82;;;1.90;99.90;;;;;;5071483;28;20040;-66
2022/01/06 03:00:55;;;;;;;28.90;6.07;;;1.80;99.90;;;;;;5073093;28;20037;-62
2022/01/06 03:03:21;;;;;;;21.52;5.45;;;1.80;99.90;;;;;;5061840;28;20037;-63
2022/01/06 03:05:46;;;;;;;26.48;5.50;;;1.70;99.90;;;;;;5066382;28;20041;-65
2022/01/06 03:08:12;;;;;;;24.25;4.85;;;1.80;99.90;;;;;;5062413;28;20105;-63
2022/01/06 03:10:42;;;;;;;23.00;5.00;;;1.80;99.90;;;;;;5064555;28;20099;-64
2022/01/06 03:13:08;;;;;;;27.60;6.00;;;1.90;99.90;;;;;;5058621;28;20036;-64
2022/01/06 03:15:33;;;;;;;20.20;5.35;;;1.80;99.90;;;;;;5065465;28;20036;-64
2022/01/06 03:17:59;;;;;;;26.48;5.75;;;1.80;99.90;;;;;;5065043;28;20744;-63
2022/01/06 03:20:29;;;;;;;31.63;7.35;;;1.90;99.90;;;;;;5066461;28;20507;-65
2022/01/06 03:22:55;;;;;;;28.60;5.57;;;1.90;99.90;;;;;;5061199;28;20040;-63
2022/01/06 03:25:22;;;;;;;33.88;4.97;;;1.80;99.90;;;;;;5068314;28;20056;-64
2022/01/06 03:27:48;;;;;;;27.63;5.70;;;1.80;99.90;;;;;;5066293;28;20042;-64
2022/01/06 03:30:16;;;;;;;17.98;4.10;;;1.80;99.90;;;;;;5066366;28;20115;-64
2022/01/06 03:32:42;;;;;;;25.60;3.90;;;1.80;99.90;;;;;;5062867;28;20048;-63
2022/01/06 03:35:12;;;;;;;23.88;3.78;;;1.80;99.90;;;;;;5067345;28;20119;-64
2022/01/06 03:37:38;;;;;;;15.25;4.13;;;1.70;99.90;;;;;;5063682;28;20040;-63
2022/01/06 03:40:05;;;;;;;17.13;3.08;;;1.70;99.90;;;;;;5063546;28;20500;-64
2022/01/06 03:42:32;;;;;;;19.77;3.22;;;1.70;99.90;;;;;;5061579;28;20041;-63
2022/01/06 03:44:58;;;;;;;19.02;3.97;;;1.60;99.90;;;;;;5067413;28;20056;-64
2022/01/06 03:47:24;;;;;;;27.25;3.90;;;1.70;99.90;;;;;;5060531;28;20119;-63
2022/01/06 03:49:49;;;;;;;28.73;3.55;;;1.60;99.90;;;;;;5067044;28;20064;-64
2022/01/06 03:52:15;;;;;;;12.05;2.95;;;1.70;99.90;;;;;;5062238;28;20037;-63
2022/01/06 03:54:40;;;;;;;18.05;3.58;;;1.60;99.90;;;;;;5071581;28;20039;-63
2022/01/06 03:57:06;;;;;;;14.45;3.03;;;1.70;99.90;;;;;;5067676;28;20040;-63
2022/01/06 03:59:32;;;;;;;29.83;4.30;;;1.70;99.90;;;;;;5068909;28;20040;-65
2022/01/06 04:01:57;;;;;;;17.60;2.83;;;1.60;99.90;;;;;;5067224;28;20050;-66
2022/01/06 04:04:23;;;;;;;14.75;3.60;;;1.60;99.90;;;;;;5067335;28;20504;-64
2022/01/06 04:06:49;;;;;;;20.50;3.97;;;1.60;99.90;;;;;;5068264;28;20045;-63
2022/01/06 04:09:14;;;;;;;22.75;3.83;;;1.60;99.90;;;;;;5059640;28;20037;-64
2022/01/06 04:11:40;;;;;;;17.75;3.45;;;1.60;99.90;;;;;;5066149;28;20116;-64
2022/01/06 04:14:06;;;;;;;12.35;2.95;;;1.70;99.90;;;;;;5061059;28;20047;-64
2022/01/06 04:16:35;;;;;;;15.20;2.97;;;1.60;99.90;;;;;;5066014;28;20048;-63
2022/01/06 04:19:01;;;;;;;16.45;3.13;;;1.60;99.90;;;;;;5065386;28;20037;-63
2022/01/06 04:21:26;;;;;;;17.48;2.90;;;1.60;99.90;;;;;;5068724;28;20127;-62
2022/01/06 04:23:52;;;;;;;11.60;2.88;;;1.60;99.90;;;;;;5065205;28;20482;-65
2022/01/06 04:26:17;;;;;;;15.13;2.83;;;1.60;99.90;;;;;;5068947;28;20558;-65
2022/01/06 04:28:43;;;;;;;11.70;2.35;;;1.60;99.90;;;;;;5063060;28;20464;-65
2022/01/06 04:31:09;;;;;;;12.13;3.33;;;1.60;99.90;;;;;;5069314;28;20048;-63
2022/01/06 04:33:36;;;;;;;16.48;2.88;;;1.50;99.90;;;;;;5057771;28;20033;-63
2022/01/06 04:36:02;;;;;;;17.52;3.30;;;1.50;99.90;;;;;;5068974;28;20067;-63
2022/01/06 04:38:28;;;;;;;13.77;3.00;;;1.50;99.90;;;;;;5062726;28;20037;-64
2022/01/06 04:40:54;;;;;;;16.00;3.58;;;1.50;99.90;;;;;;5068257;28;20511;-64
2022/01/06 04:43:19;;;;;;;14.30;2.63;;;1.40;99.90;;;;;;5062023;28;20458;-63
2022/01/06 04:45:45;;;;;;;16.42;2.80;;;1.40;99.90;;;;;;5067882;28;20048;-63
2022/01/06 04:48:11;;;;;;;32.30;4.03;;;1.40;99.90;;;;;;5064226;28;20036;-63
2022/01/06 04:50:36;;;;;;;12.13;3.47;;;1.50;99.90;;;;;;5067454;28;20041;-63
2022/01/06 04:53:02;;;;;;;16.77;3.03;;;1.50;99.90;;;;;;5068280;28;20782;-63
2022/01/06 04:55:28;;;;;;;20.10;2.90;;;1.50;99.90;;;;;;5068585;28;20036;-63
2022/01/06 04:57:53;;;;;;;17.13;2.90;;;1.50;99.90;;;;;;5066238;28;20041;-64
2022/01/06 05:00:19;;;;;;;14.90;2.75;;;1.50;99.90;;;;;;5066640;28;20025;-65
2022/01/06 05:02:45;;;;;;;16.00;5.05;;;1.50;99.90;;;;;;5062616;28;20086;-66
2022/01/06 05:05:13;;;;;;;18.30;3.50;;;1.50;99.90;;;;;;5067282;28;20474;-63
2022/01/06 05:07:40;;;;;;;12.43;3.30;;;1.60;99.90;;;;;;5063064;28;20078;-65
2022/01/06 05:10:06;;;;;;;16.02;2.60;;;1.60;99.90;;;;;;5067832;28;20781;-66
2022/01/06 05:12:33;;;;;;;12.23;2.67;;;1.60;99.90;;;;;;5062708;28;20049;-66
2022/01/06 05:14:58;;;;;;;15.98;2.78;;;1.50;99.90;;;;;;5068239;28;20117;-64
2022/01/06 05:17:24;;;;;;;14.65;3.50;;;1.60;99.90;;;;;;5061431;28;20505;-63
2022/01/06 05:19:50;;;;;;;14.90;2.70;;;1.60;99.90;;;;;;5068440;28;20033;-66
2022/01/06 05:22:15;;;;;;;13.90;2.72;;;1.70;99.90;;;;;;5062890;28;20195;-63
2022/01/06 05:24:41;;;;;;;10.43;2.75;;;1.70;99.90;;;;;;5067186;28;20492;-64
2022/01/06 05:27:10;;;;;;;19.17;2.90;;;1.70;99.90;;;;;;5062304;28;20048;-64
2022/01/06 05:29:37;;;;;;;8.23;2.28;;;1.70;99.90;;;;;;5067994;28;20040;-66
2022/01/06 05:32:03;;;;;;;20.85;2.75;;;1.70;99.90;;;;;;5065453;28;20119;-64
2022/01/06 05:34:28;;;;;;;10.80;1.92;;;1.70;99.90;;;;;;5069268;28;20622;-65
2022/01/06 05:36:54;;;;;;;12.75;2.42;;;1.70;99.90;;;;;;5065310;28;20508;-65
2022/01/06 05:39:19;;;;;;;8.57;2.55;;;1.60;99.90;;;;;;5064353;28;20033;-64
2022/01/06 05:41:45;;;;;;;10.70;2.83;;;1.70;99.90;;;;;;5066592;28;20057;-65
2022/01/06 05:44:11;;;;;;;9.60;2.45;;;1.70;99.90;;;;;;5064123;28;20115;-65
2022/01/06 05:46:36;;;;;;;14.18;2.28;;;1.70;99.90;;;;;;5065937;28;20505;-65
2022/01/06 05:49:02;;;;;;;9.65;2.22;;;1.70;99.90;;;;;;5066988;28;20036;-65
2022/01/06 05:51:28;;;;;;;5.63;2.08;;;1.60;99.90;;;;;;5067576;28;20045;-64
2022/01/06 05:53:54;;;;;;;7.00;1.65;;;1.60;99.90;;;;;;5064955;28;20123;-65
2022/01/06 05:56:20;;;;;;;5.78;1.85;;;1.60;99.90;;;;;;5063104;28;20500;-65
2022/01/06 05:58:46;;;;;;;9.52;1.70;;;1.60;99.90;;;;;;5062455;28;20088;-64
2022/01/06 06:01:12;;;;;;;15.13;2.40;;;1.60;99.90;;;;;;5072926;28;20407;-65
2022/01/06 06:03:37;;;;;;;7.65;2.22;;;1.70;99.90;;;;;;5083175;28;20048;-65
2022/01/06 06:06:03;;;;;;;7.80;2.53;;;1.70;99.90;;;;;;5079676;28;20048;-64
2022/01/06 06:08:29;;;;;;;17.48;2.92;;;1.70;99.90;;;;;;5069927;28;20036;-65
2022/01/06 06:10:55;;;;;;;6.32;2.03;;;1.60;99.90;;;;;;5076479;28;20048;-65
2022/01/06 06:13:20;;;;;;;9.23;2.40;;;1.60;99.90;;;;;;5070067;28;20036;-64
2022/01/06 06:15:46;;;;;;;12.25;2.58;;;1.60;99.90;;;;;;5076527;28;20036;-65
2022/01/06 06:18:12;;;;;;;8.07;2.90;;;1.60;99.90;;;;;;5070509;28;20135;-64
2022/01/06 06:20:39;;;;;;;11.02;2.85;;;1.60;99.90;;;;;;5079484;28;20040;-64
2022/01/06 06:23:05;;;;;;;8.90;3.08;;;1.60;99.90;;;;;;5075666;28;20127;-63
2022/01/06 06:25:31;;;;;;;10.07;2.22;;;1.60;99.90;;;;;;5069390;28;20037;-65
2022/01/06 06:27:57;;;;;;;6.57;2.50;;;1.60;99.90;;;;;;5081858;28;20032;-65
2022/01/06 06:30:22;;;;;;;8.43;2.75;;;1.60;99.90;;;;;;5076188;28;20510;-64
2022/01/06 06:32:48;;;;;;;7.10;2.88;;;1.50;99.90;;;;;;5080281;28;20047;-64
2022/01/06 06:35:14;;;;;;;8.20;2.03;;;1.50;99.90;;;;;;5082579;28;20063;-64
2022/01/06 06:37:40;;;;;;;12.73;2.75;;;1.60;99.90;;;;;;5072736;28;20071;-63
2022/01/06 06:40:07;;;;;;;7.47;2.42;;;1.50;99.90;;;;;;5078517;28;20032;-63
2022/01/06 06:42:33;;;;;;;9.00;2.40;;;1.60;99.90;;;;;;5075521;28;20502;-62
2022/01/06 06:44:58;;;;;;;10.25;2.63;;;1.60;99.90;;;;;;5081428;28;20032;-65
2022/01/06 06:47:24;;;;;;;9.93;3.05;;;1.70;99.90;;;;;;5079851;28;20048;-65
2022/01/06 06:49:51;;;;;;;6.50;1.88;;;1.60;99.90;;;;;;5081239;28;20033;-62
2022/01/06 06:52:16;;;;;;;11.85;2.42;;;1.70;99.90;;;;;;5078186;28;20051;-64
2022/01/06 06:54:42;;;;;;;8.68;2.50;;;1.70;99.90;;;;;;5074075;28;20048;-63
2022/01/06 06:57:09;;;;;;;17.83;2.85;;;1.60;99.90;;;;;;5078267;28;20047;-64
2022/01/06 06:59:35;;;;;;;12.52;2.67;;;1.60;99.90;;;;;;5069027;28;20203;-63
2022/01/06 07:02:00;;;;;;;11.75;4.13;;;1.60;99.90;;;;;;5080363;28;20040;-64
2022/01/06 07:04:26;;;;;;;7.88;2.92;;;1.50;99.90;;;;;;5083981;28;20511;-63
2022/01/06 07:06:51;;;;;;;17.95;3.55;;;1.40;99.90;;;;;;5077451;28;20549;-64
2022/01/06 07:09:17;;;;;;;13.82;3.47;;;1.40;99.90;;;;;;5066517;28;20040;-67
2022/01/06 07:11:43;;;;;;;11.43;2.92;;;1.30;99.90;;;;;;5074860;28;20032;-64
2022/01/06 07:14:08;;;;;;;13.70;3.30;;;1.30;99.90;;;;;;5065951;28;20385;-66
2022/01/06 07:16:34;;;;;;;10.85;2.85;;;1.30;99.90;;;;;;5076404;28;20045;-67
2022/01/06 07:19:00;;;;;;;13.85;3.75;;;1.20;99.90;;;;;;5083578;28;20063;-64
2022/01/06 07:21:25;;;;;;;9.63;2.80;;;1.10;99.90;;;;;;5075024;28;20120;-66
2022/01/06 07:23:52;;;;;;;19.55;3.75;;;1.10;99.90;;;;;;5066650;28;20036;-62
2022/01/06 07:26:18;;;;;;;11.40;3.80;;;1.20;99.90;;;;;;5069877;28;20114;-63
2022/01/06 07:28:44;;;;;;;8.88;2.97;;;1.20;99.90;;;;;;5072276;28;20063;-64
2022/01/06 07:31:10;;;;;;;19.05;3.75;;;1.20;99.90;;;;;;5083891;28;20625;-64
2022/01/06 07:33:36;;;;;;;16.75;4.18;;;1.20;99.90;;;;;;5074501;28;20072;-63
2022/01/06 07:36:02;;;;;;;15.25;3.70;;;1.10;99.90;;;;;;5078723;28;20548;-64
2022/01/06 07:38:28;;;;;;;18.75;3.47;;;1.10;99.90;;;;;;5074018;28;20466;-64
2022/01/06 07:40:55;;;;;;;24.35;4.03;;;1.10;99.90;;;;;;5079213;28;20032;-64
2022/01/06 07:43:21;;;;;;;13.57;3.70;;;1.20;99.90;;;;;;5083579;28;20036;-63
2022/01/06 07:45:48;;;;;;;14.07;3.42;;;1.20;99.90;;;;;;5080925;28;20119;-63
2022/01/06 07:48:24;;;;;;;13.98;3.17;;;1.10;99.90;;;;;;5076676;28;20067;-63
2022/01/06 07:50:50;;;;;;;15.88;4.07;;;1.10;99.90;;;;;;5081926;28;20458;-63
2022/01/06 07:53:16;;;;;;;13.05;3.50;;;1.10;99.90;;;;;;5076402;28;20098;-63
2022/01/06 07:55:42;;;;;;;9.30;3.55;;;1.10;99.90;;;;;;5079275;28;20059;-64
2022/01/06 07:58:08;;;;;;;11.30;3.53;;;1.10;99.90;;;;;;5080203;28;20762;-64
2022/01/06 08:00:34;;;;;;;12.15;3.67;;;1.10;99.90;;;;;;5088916;28;20036;-64
2022/01/06 08:02:59;;;;;;;15.30;3.75;;;1.20;99.90;;;;;;5080928;28;20640;-60
2022/01/06 08:05:27;;;;;;;14.80;3.30;;;1.20;99.90;;;;;;5083118;28;20127;-64
2022/01/06 08:07:53;;;;;;;19.20;3.40;;;1.20;99.90;;;;;;5079233;28;20089;-64
2022/01/06 08:10:19;;;;;;;14.07;3.80;;;1.20;99.90;;;;;;5078365;28;20033;-64
2022/01/06 08:12:45;;;;;;;14.73;3.58;;;1.20;99.90;;;;;;5094440;28;20058;-65
2022/01/06 08:15:10;;;;;;;12.75;3.17;;;1.20;99.90;;;;;;5083362;28;21440;-64
2022/01/06 08:17:37;;;;;;;13.35;3.60;;;1.20;99.90;;;;;;5092495;28;20052;-64
2022/01/06 08:20:05;;;;;;;13.00;3.47;;;1.20;99.90;;;;;;5086339;28;20036;-64
2022/01/06 08:22:31;;;;;;;17.35;3.83;;;1.20;99.90;;;;;;5088562;28;20032;-64
2022/01/06 08:24:57;;;;;;;15.02;3.38;;;1.20;99.90;;;;;;5082582;28;20040;-65
2022/01/06 08:27:23;;;;;;;11.82;3.78;;;1.30;99.90;;;;;;5078802;28;20048;-64
2022/01/06 08:29:51;;;;;;;12.95;3.58;;;1.20;99.90;;;;;;5087079;28;20036;-66
2022/01/06 08:32:17;;;;;;;23.55;4.88;;;1.40;99.90;;;;;;5081101;28;20515;-68
2022/01/06 08:34:43;;;;;;;16.67;4.78;;;1.40;99.90;;;;;;5081499;28;20047;-64
2022/01/06 08:37:09;;;;;;;15.93;4.38;;;1.40;99.90;;;;;;5082659;28;20471;-65
2022/01/06 08:39:35;;;;;;;13.85;3.75;;;1.60;99.90;;;;;;5074270;28;20119;-65
2022/01/06 08:42:01;;;;;;;14.98;4.43;;;1.70;99.90;;;;;;5080385;28;20710;-65
2022/01/06 08:44:27;;;;;;;19.00;4.47;;;1.80;99.90;;;;;;5075156;28;20413;-66
2022/01/06 08:46:53;;;;;;;17.77;4.75;;;1.80;99.90;;;;;;5071811;28;20052;-64
2022/01/06 08:49:19;;;;;;;12.52;4.10;;;1.90;99.90;;;;;;5062192;28;20028;-65
2022/01/06 08:51:45;;;;;;;13.48;3.60;;;1.90;99.90;;;;;;5079488;28;20213;-67
2022/01/06 08:54:11;;;;;;;8.88;3.55;;;2.00;99.90;;;;;;5076154;28;20036;-69
2022/01/06 08:56:37;;;;;;;17.20;4.88;;;2.10;99.90;;;;;;5078576;28;20045;-65
2022/01/06 08:59:04;;;;;;;14.75;3.88;;;2.10;99.90;;;;;;5074756;28;20037;-65
2022/01/06 09:01:31;;;;;;;12.93;4.30;;;2.10;99.90;;;;;;5074820;28;20067;-67
2022/01/06 09:03:57;;;;;;;15.23;4.75;;;2.20;99.90;;;;;;5076068;28;20119;-65
2022/01/06 09:06:22;;;;;;;16.10;5.00;;;2.10;99.90;;;;;;5094788;28;20078;-65
2022/01/06 09:08:48;;;;;;;13.57;4.63;;;2.30;99.90;;;;;;5083624;28;20060;-65
2022/01/06 09:11:14;;;;;;;13.55;3.55;;;2.30;99.90;;;;;;5078075;28;20427;-65
2022/01/06 09:13:41;;;;;;;23.17;4.45;;;2.30;99.90;;;;;;5080502;28;20032;-66
2022/01/06 09:16:08;;;;;;;16.35;4.78;;;2.30;99.90;;;;;;5080017;28;20092;-65
2022/01/06 09:18:38;;;;;;;25.25;9.27;;;2.40;99.90;;;;;;5084615;28;20044;-66
2022/01/06 09:21:05;;;;;;;19.52;4.70;;;2.30;99.90;;;;;;5081683;28;20116;-65
2022/01/06 09:23:31;;;;;;;21.35;4.70;;;2.30;99.90;;;;;;5082441;28;20044;-66
2022/01/06 09:25:56;;;;;;;24.70;8.77;;;2.30;99.90;;;;;;5077640;28;20044;-66
2022/01/06 09:28:22;;;;;;;19.88;4.88;;;2.30;99.90;;;;;;5073884;28;20044;-65
2022/01/06 09:30:51;;;;;;;17.10;4.50;;;2.40;99.90;;;;;;5072397;28;20101;-66
2022/01/06 09:33:20;;;;;;;16.58;4.28;;;2.50;99.90;;;;;;5078649;28;20047;-65
2022/01/06 09:35:46;;;;;;;19.13;5.38;;;2.60;99.90;;;;;;5074339;28;20041;-65
2022/01/06 09:38:13;;;;;;;22.23;4.25;;;2.70;99.90;;;;;;5071666;28;20039;-65
2022/01/06 09:40:40;;;;;;;25.65;4.65;;;2.60;99.90;;;;;;5078403;28;20036;-65
2022/01/06 09:43:06;;;;;;;21.00;6.13;;;2.70;99.90;;;;;;5084581;28;20040;-65
2022/01/06 09:45:32;;;;;;;20.10;4.35;;;2.70;99.90;;;;;;5078349;28;20492;-65
2022/01/06 09:47:58;;;;;;;17.17;4.78;;;2.60;99.90;;;;;;5078437;28;20127;-67
2022/01/06 09:50:24;;;;;;;18.75;5.35;;;2.60;99.90;;;;;;5078498;28;20040;-66
2022/01/06 09:52:51;;;;;;;20.33;5.22;;;2.60;99.90;;;;;;5073379;28;20109;-66
2022/01/06 09:55:16;;;;;;;25.92;5.55;;;2.60;99.90;;;;;;5076171;28;20054;-66
2022/01/06 09:57:59;;;;;;;16.67;4.72;;;2.80;99.90;;;;;;5071735;28;20848;-67
2022/01/06 10:00:28;;;;;;;25.95;5.95;;;2.80;99.90;;;;;;5075059;28;20423;-65
2022/01/06 10:03:01;;;;;;;18.50;4.55;;;2.90;99.90;;;;;;5069542;28;20127;-65
2022/01/06 10:05:36;;;;;;;25.85;5.18;;;2.90;99.90;;;;;;5073479;28;20535;-65
2022/01/06 10:08:02;;;;;;;16.88;5.00;;;2.80;99.90;;;;;;5084844;28;20040;-65
2022/01/06 10:10:27;;;;;;;18.73;4.45;;;2.70;99.90;;;;;;5079856;28;20032;-65
2022/01/06 10:12:57;;;;;;;20.70;4.43;;;2.80;99.90;;;;;;5084990;28;20077;-65
2022/01/06 10:15:25;;;;;;;16.67;4.30;;;2.90;99.90;;;;;;5098428;28;20051;-65
2022/01/06 10:17:51;;;;;;;15.57;4.28;;;3.10;99.90;;;;;;5084981;28;20094;-65
2022/01/06 10:20:20;;;;;;;17.77;4.22;;;3.10;99.90;;;;;;5089598;28;20525;-65
2022/01/06 10:22:49;;;;;;;10.23;3.88;;;3.30;99.90;;;;;;5080226;28;20044;-65
2022/01/06 10:25:16;;;;;;;14.95;4.25;;;3.30;99.90;;;;;;5079423;28;20040;-65
2022/01/06 10:27:44;;;;;;;17.08;4.50;;;3.10;99.90;;;;;;5078538;28;20043;-64
2022/01/06 10:30:10;;;;;;;17.45;4.80;;;2.90;99.90;;;;;;5077911;28;20115;-65
2022/01/06 10:32:38;;;;;;;19.70;4.25;;;2.60;99.90;;;;;;5078109;28;20178;-64
2022/01/06 10:35:05;;;;;;;12.00;4.75;;;2.50;99.90;;;;;;5070407;28;20059;-65
2022/01/06 10:37:40;;;;;;;18.75;4.30;;;2.40;99.90;;;;;;5076926;28;20053;-65
2022/01/06 10:40:22;;;;;;;16.38;4.05;;;2.50;99.90;;;;;;5071821;28;20048;-65
2022/01/06 10:42:51;;;;;;;14.90;4.85;;;2.60;99.90;;;;;;5075137;28;20032;-66
2022/01/06 10:45:23;;;;;;;18.70;4.35;;;2.70;99.90;;;;;;5072872;28;20489;-65
2022/01/06 10:47:51;;;;;;;19.95;4.88;;;2.70;99.90;;;;;;5074846;28;20699;-64
2022/01/06 10:50:19;;;;;;;20.40;5.05;;;2.80;99.90;;;;;;5076740;28;20040;-65
2022/01/06 10:52:54;;;;;;;20.70;4.70;;;2.90;99.90;;;;;;5058841;28;20032;-65
2022/01/06 10:55:28;;;;;;;18.40;5.15;;;3.00;99.90;;;;;;5071832;28;20044;-65
2022/01/06 10:57:54;;;;;;;19.17;4.78;;;2.90;99.90;;;;;;5073796;28;20063;-66
2022/01/06 11:00:22;;;;;;;16.63;4.35;;;2.70;99.90;;;;;;5070307;28;20063;-64
2022/01/06 11:02:47;;;;;;;13.18;4.13;;;2.60;99.90;;;;;;5071279;28;20036;-65
2022/01/06 11:05:13;;;;;;;11.70;4.03;;;2.70;99.90;;;;;;5071801;28;20120;-65
2022/01/06 11:07:39;;;;;;;13.05;4.50;;;2.60;99.90;;;;;;5071993;28;20044;-65
2022/01/06 11:10:15;;;;;;;18.25;5.03;;;2.60;99.90;;;;;;5067432;28;20059;-65
2022/01/06 11:12:41;;;;;;;16.65;4.68;;;2.60;99.90;;;;;;5080887;28;20040;-65
2022/01/06 11:15:08;;;;;;;16.95;4.45;;;2.60;99.90;;;;;;5091735;28;20115;-66
2022/01/06 11:17:34;;;;;;;24.85;5.35;;;2.80;99.90;;;;;;5091050;28;20121;-64
2022/01/06 11:20:00;;;;;;;28.95;6.65;;;2.80;99.90;;;;;;5073307;28;20377;-65
2022/01/06 11:22:27;;;;;;;15.20;4.65;;;2.80;99.90;;;;;;5070445;28;20124;-66
2022/01/06 11:24:59;;;;;;;11.20;4.07;;;2.80;99.90;;;;;;5067160;28;20032;-65
2022/01/06 11:27:33;;;;;;;25.80;4.97;;;3.00;99.90;;;;;;5068157;28;20115;-65
2022/01/06 11:30:17;;;;;;;19.33;4.35;;;2.90;99.90;;;;;;5077323;28;20127;-65
2022/01/06 11:32:43;;;;;;;17.67;6.05;;;2.90;99.90;;;;;;5054488;28;20500;-65
2022/01/06 11:35:11;;;;;;;23.70;5.20;;;2.80;99.90;;;;;;5066255;28;20041;-67
2022/01/06 11:37:40;;;;;;;21.33;5.13;;;2.70;99.90;;;;;;5063054;28;20078;-65
2022/01/06 11:40:06;;;;;;;22.85;5.30;;;2.70;99.90;;;;;;5061979;28;20086;-65
2022/01/06 11:42:32;;;;;;;18.48;6.22;;;2.80;99.90;;;;;;5061138;28;20788;-66
2022/01/06 11:44:58;;;;;;;17.40;4.28;;;2.90;99.90;;;;;;5064842;28;20119;-65
2022/01/06 11:47:38;;;;;;;17.63;4.43;;;3.00;99.90;;;;;;5081481;28;20048;-63
2022/01/06 11:50:16;;;;;;;20.40;4.70;;;3.00;99.90;;;;;;5086374;28;20171;-65
2022/01/06 11:52:59;;;;;;;15.80;3.88;;;3.10;99.90;;;;;;5080042;28;20044;-64
2022/01/06 11:55:33;;;;;;;18.58;4.68;;;3.20;99.90;;;;;;5086577;28;20079;-66
2022/01/06 11:58:21;;;;;;;20.40;4.60;;;3.30;99.90;;;;;;5080079;28;20384;-66
2022/01/06 12:00:58;;;;;;;23.55;4.68;;;3.30;99.90;;;;;;5084305;28;20047;-66
2022/01/06 12:03:40;;;;;;;16.45;4.22;;;3.40;99.90;;;;;;5082939;28;20449;-66
2022/01/06 12:06:06;;;;;;;17.60;3.90;;;3.40;99.90;;;;;;5085817;28;20082;-65
2022/01/06 12:08:36;;;;;;;25.23;4.38;;;3.60;99.90;;;;;;5082821;28;20554;-65
2022/01/06 12:11:03;;;;;;;20.30;4.20;;;3.50;99.90;;;;;;5086323;28;20085;-66
2022/01/06 12:13:28;;;;;;;19.48;4.25;;;3.50;99.90;;;;;;5079435;28;20050;-65
2022/01/06 12:15:57;;;;;;;27.40;8.00;;;3.50;99.90;;;;;;5082966;28;20032;-66
2022/01/06 12:18:25;;;;;;;16.27;4.00;;;3.60;99.90;;;;;;5085640;28;20120;-65
2022/01/06 12:20:52;;;;;;;12.68;4.25;;;3.50;99.90;;;;;;5081963;28;20036;-66
2022/01/06 12:23:19;;;;;;;24.67;7.88;;;3.40;99.90;;;;;;5086540;28;20186;-65
2022/01/06 12:26:04;;;;;;;27.73;6.05;;;3.40;99.90;;;;;;5089293;28;20139;-66
2022/01/06 12:28:32;;;;;;;25.65;5.65;;;3.40;99.90;;;;;;5086521;28;20047;-66
2022/01/06 12:30:59;;;;;;;23.30;7.22;;;3.30;99.90;;;;;;5089343;28;20404;-65
2022/01/06 12:33:26;;;;;;;41.53;11.93;;;3.30;99.90;;;;;;5086655;28;20044;-66
2022/01/06 12:35:54;;;;;;;29.60;10.45;;;3.20;99.90;;;;;;5091192;28;20039;-65
2022/01/06 12:38:31;;;;;;;15.75;4.65;;;3.20;99.90;;;;;;5081872;28;20534;-65
2022/01/06 12:40:58;;;;;;;19.25;3.60;;;3.30;99.90;;;;;;5083634;28;20047;-65
2022/01/06 12:43:26;;;;;;;15.25;3.60;;;3.00;99.90;;;;;;5083463;28;20077;-65
2022/01/06 12:46:07;;;;;;;22.83;3.10;;;3.00;99.90;;;;;;5089087;28;20043;-66
2022/01/06 12:48:43;;;;;;;19.58;3.42;;;3.00;99.90;;;;;;5074903;28;20086;-66
2022/01/06 12:51:16;;;;;;;15.52;3.30;;;2.90;99.90;;;;;;5078077;28;20040;-65
2022/01/06 12:53:44;;;;;;;15.63;3.90;;;2.90;99.90;;;;;;5081393;28;20044;-65
2022/01/06 12:56:27;;;;;;;14.50;3.22;;;2.90;99.90;;;;;;5087919;28;20074;-66